createdAt,value
2023-03-16T00:00:10.051Z,61.49
2023-03-16T00:01:10.057Z,62.18
2023-03-16T00:02:10.218Z,65.01
2023-03-16T00:03:10.068Z,63.26
2023-03-16T00:04:10.040Z,63.83
2023-03-16T00:05:09.996Z,63.34
2023-03-16T00:06:10.020Z,64.11
2023-03-16T00:07:09.986Z,63.34
2023-03-16T00:08:09.974Z,64.07
2023-03-16T00:09:10.000Z,61.68
2023-03-16T00:10:09.951Z,62.81
2023-03-16T00:11:09.943Z,63.48
2023-03-16T00:12:09.933Z,64.27
2023-03-16T00:13:09.935Z,66.64
2023-03-16T00:14:09.943Z,64.89
2023-03-16T00:15:09.911Z,65.75
2023-03-16T00:16:09.963Z,65.25
2023-03-16T00:17:09.881Z,64.74
2023-03-16T00:18:09.874Z,66.31
2023-03-16T00:19:09.882Z,64.87
2023-03-16T00:20:09.846Z,64.94
2023-03-16T00:21:09.861Z,64.14
2023-03-16T00:22:09.834Z,66.29
2023-03-16T00:23:09.830Z,65.69
2023-03-16T00:24:09.855Z,64.91
2023-03-16T00:25:09.813Z,65.30
2023-03-16T00:26:09.844Z,63.87
2023-03-16T00:27:09.794Z,65.57
2023-03-16T00:28:09.777Z,63.88
2023-03-16T00:29:09.803Z,64.89
2023-03-16T00:30:09.759Z,65.05
2023-03-16T00:31:09.765Z,62.66
2023-03-16T00:32:09.742Z,64.54
2023-03-16T00:33:09.824Z,63.16
2023-03-16T00:34:09.760Z,65.43
2023-03-16T00:35:09.927Z,64.59
2023-03-16T00:36:09.798Z,67.26
2023-03-16T00:37:09.761Z,65.39
2023-03-16T00:38:09.734Z,65.64
2023-03-16T00:39:09.660Z,65.46
2023-03-16T00:40:09.676Z,64.56
2023-03-16T00:41:09.668Z,64.72
2023-03-16T00:42:09.625Z,64.05
2023-03-16T00:43:09.630Z,66.67
2023-03-16T00:44:09.617Z,65.90
2023-03-16T00:45:09.621Z,63.44
2023-03-16T00:46:09.655Z,64.75
2023-03-16T00:47:09.581Z,62.78
2023-03-16T00:48:09.583Z,65.20
2023-03-16T00:49:09.565Z,62.08
2023-03-16T00:50:09.567Z,64.49
2023-03-16T00:51:09.550Z,62.96
2023-03-16T00:52:09.527Z,62.45
2023-03-16T00:53:09.530Z,63.41
2023-03-16T00:54:09.518Z,63.28
2023-03-16T00:55:09.540Z,65.00
2023-03-16T00:56:09.483Z,63.12
2023-03-16T00:57:09.479Z,63.78
2023-03-16T00:58:09.466Z,61.62
2023-03-16T00:59:09.468Z,63.25
2023-03-16T01:00:09.475Z,61.59
2023-03-16T01:01:09.503Z,70.36
2023-03-16T01:02:09.439Z,63.13
2023-03-16T01:03:09.433Z,65.79
2023-03-16T01:04:09.406Z,62.38
2023-03-16T01:05:09.428Z,65.59
2023-03-16T01:06:09.389Z,65.54
2023-03-16T01:07:09.378Z,65.30
2023-03-16T01:08:09.381Z,62.77
2023-03-16T01:09:09.362Z,61.83
2023-03-16T01:10:09.372Z,63.98
2023-03-16T01:11:09.342Z,64.56
2023-03-16T01:12:09.325Z,65.72
2023-03-16T01:13:09.318Z,63.88
2023-03-16T01:14:09.308Z,64.98
2023-03-16T01:15:09.329Z,63.74
2023-03-16T01:16:09.292Z,66.72
2023-03-16T01:17:09.401Z,63.89
2023-03-16T01:18:09.282Z,65.16
2023-03-16T01:19:09.256Z,64.75
2023-03-16T01:20:09.304Z,66.21
2023-03-16T01:21:09.260Z,65.74
2023-03-16T01:22:09.233Z,64.91
2023-03-16T01:23:09.217Z,66.26
2023-03-16T01:24:09.215Z,68.40
2023-03-16T01:25:09.225Z,67.34
2023-03-16T01:26:09.196Z,64.87
2023-03-16T01:27:09.258Z,66.53
2023-03-16T01:28:09.163Z,66.54
2023-03-16T01:29:09.160Z,67.47
2023-03-16T01:30:09.184Z,66.42
2023-03-16T01:31:09.226Z,64.68
2023-03-16T01:32:09.128Z,66.54
2023-03-16T01:33:09.221Z,65.51
2023-03-16T01:34:09.112Z,65.90
2023-03-16T01:35:09.123Z,64.73
2023-03-16T01:36:09.097Z,62.55
2023-03-16T01:37:09.083Z,65.26
2023-03-16T01:38:09.066Z,63.36
2023-03-16T01:39:09.074Z,62.94
2023-03-16T01:40:09.107Z,63.32
2023-03-16T01:41:09.043Z,65.20
2023-03-16T01:42:09.032Z,63.84
2023-03-16T01:43:09.015Z,62.93
2023-03-16T01:44:09.010Z,61.37
2023-03-16T01:45:09.021Z,67.72
2023-03-16T01:46:09.054Z,63.81
2023-03-16T01:47:08.993Z,65.45
2023-03-16T01:48:08.980Z,65.70
2023-03-16T01:49:08.970Z,66.20
2023-03-16T01:50:08.985Z,66.39
2023-03-16T01:51:08.939Z,64.56
2023-03-16T01:52:08.956Z,64.31
2023-03-16T01:53:08.917Z,64.72
2023-03-16T01:54:08.895Z,64.60
2023-03-16T01:55:09.921Z,65.27
2023-03-16T01:56:08.893Z,65.87
2023-03-16T01:57:08.876Z,64.13
2023-03-16T01:58:08.872Z,65.63
2023-03-16T01:59:08.860Z,63.66
2023-03-16T02:00:08.900Z,64.22
2023-03-16T02:01:08.913Z,64.04
2023-03-16T02:02:08.829Z,62.38
2023-03-16T02:03:08.829Z,64.10
2023-03-16T02:04:08.913Z,64.92
2023-03-16T02:05:08.829Z,64.57
2023-03-16T02:06:08.789Z,65.33
2023-03-16T02:07:08.776Z,65.50
2023-03-16T02:08:08.770Z,64.86
2023-03-16T02:09:08.756Z,65.30
2023-03-16T02:10:08.795Z,64.55
2023-03-16T02:11:08.751Z,66.20
2023-03-16T02:12:08.732Z,64.78
2023-03-16T02:13:08.731Z,66.21
2023-03-16T02:14:08.722Z,64.24
2023-03-16T02:15:08.728Z,63.42
2023-03-16T02:16:08.751Z,65.13
2023-03-16T02:17:08.771Z,64.27
2023-03-16T02:18:08.679Z,65.35
2023-03-16T02:19:08.664Z,66.60
2023-03-16T02:20:08.671Z,65.45
2023-03-16T02:21:08.645Z,64.24
2023-03-16T02:22:08.681Z,63.00
2023-03-16T02:23:08.621Z,63.86
2023-03-16T02:24:08.690Z,64.56
2023-03-16T02:25:08.606Z,63.45
2023-03-16T02:26:09.582Z,65.05
2023-03-16T02:27:08.579Z,66.67
2023-03-16T02:28:08.575Z,65.64
2023-03-16T02:29:08.562Z,62.63
2023-03-16T02:30:08.607Z,63.42
2023-03-16T02:31:08.619Z,64.97
2023-03-16T02:32:08.548Z,65.32
2023-03-16T02:33:08.569Z,62.58
2023-03-16T02:34:08.521Z,66.57
2023-03-16T02:35:08.541Z,64.35
2023-03-16T02:36:08.511Z,65.32
2023-03-16T02:37:08.483Z,67.52
2023-03-16T02:38:08.474Z,67.41
2023-03-16T02:39:08.459Z,65.09
2023-03-16T02:40:08.482Z,64.80
2023-03-16T02:41:08.453Z,65.78
2023-03-16T02:42:08.471Z,66.19
2023-03-16T02:43:08.429Z,66.69
2023-03-16T02:44:08.417Z,67.35
2023-03-16T02:45:08.436Z,66.03
2023-03-16T02:46:08.462Z,65.53
2023-03-16T02:47:08.391Z,67.53
2023-03-16T02:48:08.405Z,65.55
2023-03-16T02:49:08.364Z,66.48
2023-03-16T02:50:08.354Z,67.72
2023-03-16T02:51:08.342Z,67.35
2023-03-16T02:52:08.335Z,68.56
2023-03-16T02:53:08.368Z,65.74
2023-03-16T02:54:08.358Z,66.29
2023-03-16T02:55:08.347Z,64.66
2023-03-16T02:56:08.311Z,65.62
2023-03-16T02:57:08.296Z,66.03
2023-03-16T02:58:08.270Z,66.10
2023-03-16T02:59:08.261Z,66.54
2023-03-16T03:00:08.296Z,66.38
2023-03-16T03:01:08.227Z,68.03
2023-03-16T03:02:11.151Z,67.04
2023-03-16T03:03:09.238Z,65.03
2023-03-16T03:04:08.207Z,65.63
2023-03-16T03:05:08.216Z,63.60
2023-03-16T03:06:08.191Z,66.22
2023-03-16T03:07:08.183Z,65.02
2023-03-16T03:08:08.185Z,66.30
2023-03-16T03:09:08.164Z,65.89
2023-03-16T03:10:08.187Z,65.88
2023-03-16T03:11:08.137Z,66.01
2023-03-16T03:12:08.132Z,66.09
2023-03-16T03:13:08.121Z,66.02
2023-03-16T03:14:08.111Z,65.75
2023-03-16T03:15:08.118Z,64.72
2023-03-16T03:16:08.135Z,65.63
2023-03-16T03:17:08.090Z,66.50
2023-03-16T03:18:08.087Z,66.77
2023-03-16T03:19:08.093Z,66.10
2023-03-16T03:20:08.110Z,67.44
2023-03-16T03:21:08.052Z,65.88
2023-03-16T03:22:08.039Z,64.48
2023-03-16T03:23:08.033Z,66.06
2023-03-16T03:24:08.052Z,66.77
2023-03-16T03:25:08.041Z,65.12
2023-03-16T03:26:08.000Z,67.00
2023-03-16T03:27:07.996Z,67.26
2023-03-16T03:28:08.030Z,66.72
2023-03-16T03:29:07.994Z,65.43
2023-03-16T03:30:07.972Z,67.84
2023-03-16T03:31:08.068Z,65.80
2023-03-16T03:32:07.949Z,68.04
2023-03-16T03:33:08.010Z,64.65
2023-03-16T03:34:07.969Z,63.80
2023-03-16T03:35:07.923Z,66.65
2023-03-16T03:36:07.948Z,67.18
2023-03-16T03:37:07.908Z,68.20
2023-03-16T03:38:07.884Z,66.67
2023-03-16T03:39:07.873Z,66.96
2023-03-16T03:40:07.864Z,66.84
2023-03-16T03:41:07.879Z,65.99
2023-03-16T03:42:07.853Z,67.92
2023-03-16T03:43:07.842Z,67.11
2023-03-16T03:44:07.830Z,65.37
2023-03-16T03:45:07.823Z,67.64
2023-03-16T03:46:08.014Z,66.91
2023-03-16T03:47:07.844Z,66.33
2023-03-16T03:48:07.788Z,66.73
2023-03-16T03:49:07.780Z,69.23
2023-03-16T03:50:07.760Z,66.00
2023-03-16T03:51:07.776Z,66.26
2023-03-16T03:52:07.754Z,66.28
2023-03-16T03:53:07.745Z,66.68
2023-03-16T03:54:07.732Z,68.32
2023-03-16T03:55:07.721Z,66.79
2023-03-16T03:56:07.723Z,67.55
2023-03-16T03:57:07.692Z,67.76
2023-03-16T03:58:07.697Z,65.98
2023-03-16T03:59:07.675Z,65.04
2023-03-16T04:00:07.667Z,66.32
2023-03-16T04:01:07.661Z,64.43
2023-03-16T04:02:07.716Z,66.81
2023-03-16T04:03:07.738Z,67.36
2023-03-16T04:04:07.652Z,66.08
2023-03-16T04:05:07.638Z,65.64
2023-03-16T04:06:07.633Z,66.78
2023-03-16T04:07:07.600Z,66.73
2023-03-16T04:08:07.594Z,68.00
2023-03-16T04:09:07.592Z,67.37
2023-03-16T04:10:07.571Z,67.25
2023-03-16T04:11:07.579Z,68.81
2023-03-16T04:12:07.575Z,68.67
2023-03-16T04:13:07.538Z,68.80
2023-03-16T04:14:07.531Z,68.05
2023-03-16T04:15:07.532Z,68.63
2023-03-16T04:16:08.544Z,69.26
2023-03-16T04:17:07.503Z,68.80
2023-03-16T04:18:07.494Z,69.49
2023-03-16T04:19:07.487Z,69.62
2023-03-16T04:20:07.474Z,69.58
2023-03-16T04:21:07.477Z,69.39
2023-03-16T04:22:07.457Z,68.98
2023-03-16T04:23:07.456Z,69.33
2023-03-16T04:24:07.449Z,68.30
2023-03-16T04:25:07.439Z,67.44
2023-03-16T04:26:07.434Z,68.24
2023-03-16T04:27:07.412Z,68.53
2023-03-16T04:28:07.415Z,67.85
2023-03-16T04:29:07.386Z,67.66
2023-03-16T04:30:07.388Z,67.75
2023-03-16T04:31:07.596Z,69.05
2023-03-16T04:32:08.358Z,67.99
2023-03-16T04:33:07.422Z,67.66
2023-03-16T04:34:07.339Z,69.03
2023-03-16T04:35:07.327Z,68.20
2023-03-16T04:36:07.399Z,66.78
2023-03-16T04:37:07.311Z,67.89
2023-03-16T04:38:07.298Z,69.13
2023-03-16T04:39:07.307Z,69.22
2023-03-16T04:40:09.210Z,68.64
2023-03-16T04:41:07.297Z,69.14
2023-03-16T04:42:07.259Z,69.09
2023-03-16T04:43:07.253Z,69.99
2023-03-16T04:44:07.242Z,69.71
2023-03-16T04:45:07.232Z,69.56
2023-03-16T04:46:07.280Z,68.26
2023-03-16T04:47:07.207Z,68.23
2023-03-16T04:48:07.200Z,68.04
2023-03-16T04:49:07.203Z,69.13
2023-03-16T04:50:07.175Z,68.09
2023-03-16T04:51:07.187Z,68.26
2023-03-16T04:52:07.161Z,69.55
2023-03-16T04:53:07.154Z,68.79
2023-03-16T04:54:07.144Z,68.01
2023-03-16T04:55:07.138Z,67.89
2023-03-16T04:56:07.161Z,68.97
2023-03-16T04:57:07.126Z,68.31
2023-03-16T04:58:07.102Z,67.53
2023-03-16T04:59:07.099Z,69.09
2023-03-16T05:00:07.085Z,67.21
2023-03-16T05:01:07.112Z,67.65
2023-03-16T05:02:07.084Z,67.89
2023-03-16T05:03:07.054Z,68.91
2023-03-16T05:04:07.048Z,67.65
2023-03-16T05:05:07.071Z,69.05
2023-03-16T05:06:07.050Z,68.13
2023-03-16T05:07:07.018Z,68.14
2023-03-16T05:08:07.035Z,67.93
2023-03-16T05:09:07.001Z,68.35
2023-03-16T05:10:07.000Z,67.03
2023-03-16T05:11:06.999Z,67.41
2023-03-16T05:12:06.966Z,68.85
2023-03-16T05:13:06.964Z,66.33
2023-03-16T05:14:06.963Z,68.51
2023-03-16T05:15:06.943Z,69.74
2023-03-16T05:16:06.974Z,68.66
2023-03-16T05:17:06.906Z,68.85
2023-03-16T05:18:07.905Z,67.54
2023-03-16T05:19:06.899Z,68.60
2023-03-16T05:20:06.888Z,68.52
2023-03-16T05:21:06.898Z,67.81
2023-03-16T05:22:06.873Z,68.74
2023-03-16T05:23:06.862Z,68.85
2023-03-16T05:24:06.848Z,69.93
2023-03-16T05:25:06.830Z,68.04
2023-03-16T05:26:06.869Z,70.40
2023-03-16T05:27:06.818Z,70.19
2023-03-16T05:28:06.815Z,68.90
2023-03-16T05:29:06.802Z,69.51
2023-03-16T05:30:06.789Z,68.18
2023-03-16T05:31:06.913Z,69.04
2023-03-16T05:32:06.767Z,67.63
2023-03-16T05:33:06.873Z,69.90
2023-03-16T05:34:06.763Z,69.12
2023-03-16T05:35:06.751Z,68.73
2023-03-16T05:36:06.771Z,69.95
2023-03-16T05:37:06.722Z,71.32
2023-03-16T05:38:06.710Z,69.14
2023-03-16T05:39:06.707Z,71.41
2023-03-16T05:40:06.699Z,70.06
2023-03-16T05:41:06.709Z,69.13
2023-03-16T05:42:06.672Z,71.17
2023-03-16T05:43:06.672Z,70.46
2023-03-16T05:44:06.665Z,70.71
2023-03-16T05:45:06.644Z,70.32
2023-03-16T05:46:06.723Z,70.32
2023-03-16T05:47:06.736Z,70.92
2023-03-16T05:48:06.611Z,70.94
2023-03-16T05:49:07.611Z,70.35
2023-03-16T05:50:06.610Z,70.71
2023-03-16T05:51:06.613Z,70.99
2023-03-16T05:52:06.592Z,69.39
2023-03-16T05:53:06.570Z,70.68
2023-03-16T05:54:06.563Z,69.69
2023-03-16T05:55:06.551Z,69.44
2023-03-16T05:56:06.553Z,69.62
2023-03-16T05:57:06.529Z,69.57
2023-03-16T05:58:06.516Z,68.96
2023-03-16T05:59:06.508Z,67.99
2023-03-16T06:00:06.496Z,67.81
2023-03-16T06:01:06.512Z,69.60
2023-03-16T06:02:06.482Z,68.87
2023-03-16T06:03:06.502Z,68.27
2023-03-16T06:04:06.492Z,69.09
2023-03-16T06:05:06.444Z,70.15
2023-03-16T06:06:06.449Z,70.11
2023-03-16T06:07:06.442Z,69.37
2023-03-16T06:08:06.425Z,70.43
2023-03-16T06:09:06.415Z,70.54
2023-03-16T06:10:06.423Z,69.28
2023-03-16T06:11:06.411Z,69.49
2023-03-16T06:12:06.398Z,69.07
2023-03-16T06:13:06.365Z,68.91
2023-03-16T06:14:06.362Z,67.62
2023-03-16T06:15:06.355Z,69.98
2023-03-16T06:16:06.417Z,69.56
2023-03-16T06:17:06.340Z,68.42
2023-03-16T06:18:38.266Z,68.15
2023-03-16T06:19:06.316Z,66.72
2023-03-16T06:20:06.331Z,68.65
2023-03-16T06:21:06.315Z,68.43
2023-03-16T06:22:06.365Z,68.70
2023-03-16T06:23:06.302Z,66.70
2023-03-16T06:24:06.273Z,69.39
2023-03-16T06:25:06.281Z,67.30
2023-03-16T06:26:06.314Z,67.85
2023-03-16T06:27:06.244Z,66.64
2023-03-16T06:28:06.231Z,68.96
2023-03-16T06:29:06.223Z,68.29
2023-03-16T06:30:06.215Z,68.20
2023-03-16T06:31:06.325Z,68.65
2023-03-16T06:32:06.192Z,67.30
2023-03-16T06:33:06.290Z,64.76
2023-03-16T06:34:06.166Z,67.56
2023-03-16T06:35:06.161Z,67.50
2023-03-16T06:36:06.281Z,63.92
2023-03-16T06:37:06.154Z,66.44
2023-03-16T06:38:06.147Z,66.61
2023-03-16T06:39:06.165Z,66.21
2023-03-16T06:40:06.129Z,65.01
2023-03-16T06:41:06.154Z,66.82
2023-03-16T06:42:06.109Z,65.66
2023-03-16T06:43:06.104Z,66.28
2023-03-16T06:44:06.092Z,65.76
2023-03-16T06:45:06.085Z,66.59
2023-03-16T06:46:06.133Z,67.28
2023-03-16T06:47:06.065Z,65.80
2023-03-16T06:48:06.052Z,65.26
2023-03-16T06:49:06.051Z,65.58
2023-03-16T06:50:06.038Z,66.07
2023-03-16T06:51:06.068Z,66.44
2023-03-16T06:52:06.061Z,64.67
2023-03-16T06:53:06.044Z,65.61
2023-03-16T06:54:06.015Z,65.64
2023-03-16T06:55:06.012Z,65.00
2023-03-16T06:56:06.028Z,66.13
2023-03-16T06:57:06.019Z,65.44
2023-03-16T06:58:05.983Z,64.47
2023-03-16T06:59:05.971Z,62.42
2023-03-16T07:00:05.956Z,64.89
2023-03-16T07:01:05.958Z,66.19
2023-03-16T07:02:05.977Z,65.03
2023-03-16T07:03:05.933Z,66.02
2023-03-16T07:04:06.034Z,64.23
2023-03-16T07:05:05.905Z,65.11
2023-03-16T07:06:05.918Z,65.99
2023-03-16T07:07:05.923Z,65.50
2023-03-16T07:08:05.888Z,67.09
2023-03-16T07:09:05.884Z,66.83
2023-03-16T07:10:05.877Z,65.40
2023-03-16T07:11:05.861Z,66.17
2023-03-16T07:12:05.885Z,65.03
2023-03-16T07:13:05.843Z,62.90
2023-03-16T07:14:05.844Z,64.40
2023-03-16T07:15:05.830Z,64.90
2023-03-16T07:16:05.828Z,65.45
2023-03-16T07:17:05.924Z,64.36
2023-03-16T07:18:05.814Z,66.74
2023-03-16T07:19:05.820Z,64.55
2023-03-16T07:20:05.832Z,65.41
2023-03-16T07:21:05.794Z,64.78
2023-03-16T07:22:05.793Z,66.17
2023-03-16T07:23:05.777Z,67.03
2023-03-16T07:24:05.759Z,66.48
2023-03-16T07:25:05.756Z,65.98
2023-03-16T07:26:05.745Z,65.12
2023-03-16T07:27:05.762Z,66.63
2023-03-16T07:28:05.733Z,64.54
2023-03-16T07:29:05.714Z,63.36
2023-03-16T07:30:05.709Z,66.22
2023-03-16T07:31:05.696Z,65.28
2023-03-16T07:32:05.790Z,64.45
2023-03-16T07:33:05.736Z,64.36
2023-03-16T07:34:05.672Z,64.42
2023-03-16T07:35:05.667Z,63.59
2023-03-16T07:36:05.880Z,64.89
2023-03-16T07:37:05.708Z,65.27
2023-03-16T07:38:05.651Z,66.20
2023-03-16T07:39:05.626Z,65.87
2023-03-16T07:40:05.633Z,65.56
2023-03-16T07:41:05.608Z,64.81
2023-03-16T07:42:05.617Z,65.39
2023-03-16T07:43:05.604Z,64.57
2023-03-16T07:44:05.591Z,64.90
2023-03-16T07:45:05.579Z,64.69
2023-03-16T07:46:05.649Z,65.31
2023-03-16T07:47:05.580Z,65.12
2023-03-16T07:48:05.573Z,65.32
2023-03-16T07:49:05.584Z,65.17
2023-03-16T07:50:05.583Z,64.89
2023-03-16T07:51:05.524Z,63.95
2023-03-16T07:52:05.567Z,65.12
2023-03-16T07:53:05.506Z,64.12
2023-03-16T07:54:05.513Z,64.80
2023-03-16T07:55:05.513Z,64.06
2023-03-16T07:56:05.481Z,67.10
2023-03-16T07:57:05.487Z,63.86
2023-03-16T07:58:05.464Z,64.22
2023-03-16T07:59:05.444Z,66.14
2023-03-16T08:00:05.461Z,65.80
2023-03-16T08:01:05.433Z,66.22
2023-03-16T08:02:05.477Z,66.43
2023-03-16T08:03:05.411Z,65.05
2023-03-16T08:04:05.461Z,63.10
2023-03-16T08:05:05.394Z,65.13
2023-03-16T08:06:05.380Z,63.78
2023-03-16T08:07:05.387Z,64.55
2023-03-16T08:08:05.371Z,66.32
2023-03-16T08:09:05.351Z,65.81
2023-03-16T08:10:05.338Z,66.10
2023-03-16T08:11:05.326Z,64.35
2023-03-16T08:12:06.344Z,63.43
2023-03-16T08:13:05.362Z,64.72
2023-03-16T08:14:05.308Z,63.08
2023-03-16T08:15:05.292Z,65.72
2023-03-16T08:16:05.347Z,62.58
2023-03-16T08:17:05.287Z,64.65
2023-03-16T08:18:05.258Z,65.73
2023-03-16T08:19:05.264Z,61.68
2023-03-16T08:20:05.254Z,60.72
2023-03-16T08:21:05.238Z,64.88
2023-03-16T08:22:05.258Z,63.30
2023-03-16T08:23:05.228Z,62.82
2023-03-16T08:24:05.195Z,63.09
2023-03-16T08:25:05.198Z,63.46
2023-03-16T08:26:05.183Z,62.09
2023-03-16T08:27:05.183Z,63.01
2023-03-16T08:28:05.159Z,61.66
2023-03-16T08:29:05.180Z,61.19
2023-03-16T08:30:05.161Z,62.35
2023-03-16T08:31:05.154Z,61.46
2023-03-16T08:32:05.133Z,62.79
2023-03-16T08:33:05.246Z,62.93
2023-03-16T08:34:05.115Z,62.57
2023-03-16T08:35:05.080Z,63.04
2023-03-16T08:36:05.096Z,62.68
2023-03-16T08:37:05.082Z,62.49
2023-03-16T08:38:05.038Z,62.27
2023-03-16T08:39:07.395Z,61.09
2023-03-16T08:40:06.008Z,61.17
2023-03-16T08:41:05.008Z,61.23
2023-03-16T08:42:05.061Z,63.50
2023-03-16T08:43:04.996Z,61.63
2023-03-16T08:44:05.005Z,61.39
2023-03-16T08:45:05.076Z,62.88
2023-03-16T08:46:04.962Z,61.25
2023-03-16T08:47:04.951Z,61.93
2023-03-16T08:48:04.993Z,64.70
2023-03-16T08:49:04.924Z,63.41
2023-03-16T08:50:04.910Z,61.66
2023-03-16T08:51:04.902Z,62.15
2023-03-16T08:52:04.921Z,61.68
2023-03-16T08:53:04.921Z,60.93
2023-03-16T08:54:04.861Z,62.12
2023-03-16T08:55:04.849Z,61.77
2023-03-16T08:56:04.865Z,60.64
2023-03-16T08:57:04.834Z,61.79
2023-03-16T08:58:04.839Z,63.14
2023-03-16T08:59:04.809Z,63.54
2023-03-16T09:00:04.850Z,63.69
2023-03-16T09:01:04.794Z,63.56
2023-03-16T09:02:04.852Z,62.76
2023-03-16T09:03:04.803Z,61.41
2023-03-16T09:04:04.845Z,68.22
2023-03-16T09:05:04.751Z,61.20
2023-03-16T09:06:04.753Z,62.01
2023-03-16T09:07:09.624Z,61.76
2023-03-16T09:08:06.743Z,63.48
2023-03-16T09:09:04.737Z,62.50
2023-03-16T09:10:04.711Z,62.73
2023-03-16T09:11:04.690Z,63.27
2023-03-16T09:12:04.719Z,62.62
2023-03-16T09:13:04.691Z,61.54
2023-03-16T09:14:04.678Z,60.77
2023-03-16T09:15:04.666Z,61.60
2023-03-16T09:16:04.651Z,61.86
2023-03-16T09:17:04.693Z,60.90
2023-03-16T09:18:04.620Z,61.77
2023-03-16T09:19:04.616Z,61.07
2023-03-16T09:20:15.419Z,60.56
2023-03-16T09:21:06.588Z,60.82
2023-03-16T09:22:04.595Z,59.67
2023-03-16T09:23:04.573Z,62.00
2023-03-16T09:24:04.557Z,60.76
2023-03-16T09:25:04.545Z,60.37
2023-03-16T09:26:04.536Z,60.96
2023-03-16T09:27:04.584Z,60.19
2023-03-16T09:28:04.545Z,63.07
2023-03-16T09:29:04.506Z,61.74
2023-03-16T09:30:04.507Z,61.62
2023-03-16T09:31:04.528Z,61.24
2023-03-16T09:32:04.474Z,62.09
2023-03-16T09:33:04.536Z,61.96
2023-03-16T09:34:04.453Z,62.84
2023-03-16T09:35:04.455Z,60.00
2023-03-16T09:36:04.467Z,63.71
2023-03-16T09:37:04.426Z,60.75
2023-03-16T09:38:06.202Z,60.54
2023-03-16T09:39:05.404Z,59.83
2023-03-16T09:40:11.713Z,59.24
2023-03-16T09:41:06.395Z,62.34
2023-03-16T09:42:04.364Z,61.24
2023-03-16T09:43:04.388Z,60.90
2023-03-16T09:44:04.351Z,59.82
2023-03-16T09:45:04.360Z,61.20
2023-03-16T09:46:04.387Z,61.99
2023-03-16T09:47:04.321Z,61.41
2023-03-16T09:48:04.340Z,61.24
2023-03-16T09:49:04.306Z,62.46
2023-03-16T09:50:04.327Z,60.75
2023-03-16T09:51:04.312Z,61.49
2023-03-16T09:52:04.280Z,61.59
2023-03-16T09:53:04.288Z,61.32
2023-03-16T09:54:04.262Z,61.15
2023-03-16T09:55:04.247Z,60.67
2023-03-16T09:56:04.264Z,59.84
2023-03-16T09:57:04.233Z,61.48
2023-03-16T09:58:04.246Z,62.55
2023-03-16T09:59:04.206Z,60.37
2023-03-16T10:00:04.190Z,62.81
2023-03-16T10:01:05.235Z,63.30
2023-03-16T10:02:04.188Z,60.94
2023-03-16T10:03:04.187Z,61.81
2023-03-16T10:04:04.236Z,62.61
2023-03-16T10:05:04.164Z,62.68
2023-03-16T10:06:05.149Z,60.79
2023-03-16T10:07:04.145Z,62.74
2023-03-16T10:08:04.143Z,61.45
2023-03-16T10:09:04.120Z,61.49
2023-03-16T10:10:04.106Z,61.92
2023-03-16T10:11:04.110Z,62.27
2023-03-16T10:12:04.091Z,61.67
2023-03-16T10:13:04.111Z,62.12
2023-03-16T10:14:04.091Z,60.98
2023-03-16T10:15:04.094Z,61.69
2023-03-16T10:16:04.102Z,62.18
2023-03-16T10:17:04.053Z,62.48
2023-03-16T10:18:04.028Z,61.47
2023-03-16T10:19:04.056Z,61.83
2023-03-16T10:20:04.014Z,60.28
2023-03-16T10:21:04.008Z,59.91
2023-03-16T10:22:04.003Z,60.95
2023-03-16T10:23:04.011Z,59.75
2023-03-16T10:24:04.001Z,60.03
2023-03-16T10:25:03.945Z,61.50
2023-03-16T10:26:03.940Z,62.58
2023-03-16T10:27:03.936Z,60.26
2023-03-16T10:28:03.925Z,60.71
2023-03-16T10:29:03.913Z,62.08
2023-03-16T10:30:04.924Z,62.41
2023-03-16T10:31:03.904Z,63.39
2023-03-16T10:32:03.944Z,60.80
2023-03-16T10:33:03.922Z,59.95
2023-03-16T10:34:03.864Z,60.21
2023-03-16T10:35:03.927Z,62.37
2023-03-16T10:36:03.904Z,63.27
2023-03-16T10:37:03.844Z,63.71
2023-03-16T10:38:03.854Z,64.08
2023-03-16T10:39:03.816Z,63.21
2023-03-16T10:40:03.813Z,64.42
2023-03-16T10:41:03.818Z,63.54
2023-03-16T10:42:03.791Z,62.72
2023-03-16T10:43:03.812Z,63.37
2023-03-16T10:44:03.772Z,62.64
2023-03-16T10:45:03.786Z,63.42
2023-03-16T10:46:03.882Z,61.47
2023-03-16T10:47:03.841Z,61.19
2023-03-16T10:48:03.764Z,62.21
2023-03-16T10:49:03.738Z,62.83
2023-03-16T10:50:03.751Z,64.79
2023-03-16T10:51:03.712Z,63.89
2023-03-16T10:52:03.699Z,63.15
2023-03-16T10:53:03.746Z,61.71
2023-03-16T10:54:03.672Z,61.50
2023-03-16T10:55:03.667Z,63.03
2023-03-16T10:56:03.657Z,62.06
2023-03-16T10:57:03.664Z,63.06
2023-03-16T10:58:03.655Z,63.02
2023-03-16T10:59:03.629Z,64.21
2023-03-16T11:00:03.621Z,61.85
2023-03-16T11:01:03.694Z,62.92
2023-03-16T11:02:03.631Z,62.35
2023-03-16T11:03:03.608Z,63.42
2023-03-16T11:04:03.581Z,62.24
2023-03-16T11:05:03.567Z,60.71
2023-03-16T11:06:03.564Z,62.88
2023-03-16T11:07:03.552Z,63.95
2023-03-16T11:08:03.555Z,62.04
2023-03-16T11:09:03.545Z,63.13
2023-03-16T11:10:03.524Z,63.61
2023-03-16T11:11:03.516Z,63.17
2023-03-16T11:12:03.547Z,62.11
2023-03-16T11:13:03.516Z,62.90
2023-03-16T11:14:03.490Z,61.38
2023-03-16T11:15:04.725Z,60.80
2023-03-16T11:16:03.483Z,61.42
2023-03-16T11:17:03.516Z,63.37
2023-03-16T11:18:03.467Z,62.27
2023-03-16T11:19:03.436Z,63.86
2023-03-16T11:20:03.422Z,64.05
2023-03-16T11:21:03.428Z,64.19
2023-03-16T11:22:03.418Z,63.13
2023-03-16T11:23:03.465Z,62.79
2023-03-16T11:24:03.385Z,62.23
2023-03-16T11:25:03.392Z,62.83
2023-03-16T11:26:03.389Z,62.80
2023-03-16T11:27:03.383Z,63.46
2023-03-16T11:28:03.352Z,62.23
2023-03-16T11:29:03.339Z,63.14
2023-03-16T11:30:03.329Z,62.56
2023-03-16T11:31:03.326Z,62.44
2023-03-16T11:32:03.354Z,62.01
2023-03-16T11:33:03.329Z,61.99
2023-03-16T11:34:03.318Z,61.87
2023-03-16T11:35:03.281Z,62.57
2023-03-16T11:36:03.324Z,62.42
2023-03-16T11:37:03.287Z,62.21
2023-03-16T11:38:03.264Z,62.52
2023-03-16T11:39:03.277Z,63.21
2023-03-16T11:40:03.229Z,63.32
2023-03-16T11:41:03.224Z,62.87
2023-03-16T11:42:03.232Z,62.34
2023-03-16T11:43:03.193Z,62.16
2023-03-16T11:44:04.250Z,63.19
2023-03-16T11:45:03.179Z,62.68
2023-03-16T11:46:03.177Z,64.41
2023-03-16T11:47:03.164Z,63.42
2023-03-16T11:48:03.168Z,62.45
2023-03-16T11:49:03.167Z,61.39
2023-03-16T11:50:03.123Z,63.99
2023-03-16T11:51:03.130Z,63.00
2023-03-16T11:52:03.139Z,63.64
2023-03-16T11:53:03.110Z,62.14
2023-03-16T11:54:03.090Z,62.33
2023-03-16T11:55:03.096Z,63.89
2023-03-16T11:56:03.055Z,63.34
2023-03-16T11:57:03.080Z,62.19
2023-03-16T11:58:03.048Z,61.15
2023-03-16T11:59:03.029Z,61.55
2023-03-16T12:00:03.024Z,61.64
2023-03-16T12:01:03.023Z,62.54
2023-03-16T12:02:03.145Z,61.40
2023-03-16T12:03:03.067Z,62.50
2023-03-16T12:04:03.102Z,62.57
2023-03-16T12:05:02.963Z,63.60
2023-03-16T12:06:13.651Z,63.74
2023-03-16T12:07:04.976Z,62.84
2023-03-16T12:08:02.948Z,62.46
2023-03-16T12:09:02.954Z,61.80
2023-03-16T12:10:02.928Z,62.53
2023-03-16T12:11:02.916Z,62.25
2023-03-16T12:12:02.915Z,62.31
2023-03-16T12:13:02.893Z,62.82
2023-03-16T12:14:02.900Z,60.57
2023-03-16T12:15:02.881Z,59.91
2023-03-16T12:16:02.927Z,60.62
2023-03-16T12:17:03.190Z,62.18
2023-03-16T12:18:02.851Z,61.44
2023-03-16T12:19:02.848Z,61.31
2023-03-16T12:20:02.811Z,61.45
2023-03-16T12:21:02.810Z,59.96
2023-03-16T12:22:02.792Z,60.97
2023-03-16T12:23:02.781Z,60.70
2023-03-16T12:24:02.814Z,60.37
2023-03-16T12:25:02.779Z,59.67
2023-03-16T12:26:02.749Z,60.84
2023-03-16T12:27:02.746Z,62.19
2023-03-16T12:28:02.739Z,60.45
2023-03-16T12:29:02.759Z,61.43
2023-03-16T12:30:02.739Z,61.02
2023-03-16T12:31:02.738Z,60.97
2023-03-16T12:32:02.704Z,60.99
2023-03-16T12:33:02.728Z,59.77
2023-03-16T12:34:02.698Z,60.75
2023-03-16T12:35:02.667Z,61.26
2023-03-16T12:36:02.774Z,60.77
2023-03-16T12:37:02.722Z,61.26
2023-03-16T12:38:02.648Z,60.78
2023-03-16T12:39:02.650Z,61.22
2023-03-16T12:40:03.608Z,61.36
2023-03-16T12:41:02.616Z,60.98
2023-03-16T12:42:02.619Z,61.44
2023-03-16T12:43:02.653Z,63.45
2023-03-16T12:44:02.670Z,60.78
2023-03-16T12:45:02.574Z,61.01
2023-03-16T12:46:02.575Z,62.55
2023-03-16T12:47:02.543Z,62.63
2023-03-16T12:48:02.558Z,62.40
2023-03-16T12:49:02.569Z,63.07
2023-03-16T12:50:02.527Z,60.98
2023-03-16T12:51:02.511Z,59.83
2023-03-16T12:52:02.490Z,60.38